sensor_id;sensor_type;location;lat;lon;timestamp;temperature;humidity
59703;DHT22;45570;48.782;8.332;2022-09-09T05:48:46;15.50;99.90
59703;DHT22;45570;48.782;8.332;2022-09-09T05:51:18;15.60;99.90
59703;DHT22;45570;48.782;8.332;2022-09-09T05:53:49;15.70;99.90
59703;DHT22;45570;48.782;8.332;2022-09-09T06:22:14;16.10;99.90
59703;DHT22;45570;48.782;8.332;2022-09-09T06:24:44;16.20;99.90
59703;DHT22;45570;48.782;8.332;2022-09-09T06:27:12;16.20;99.90
59703;DHT22;45570;48.782;8.332;2022-09-09T06:29:41;16.30;99.90
59703;DHT22;45570;48.782;8.332;2022-09-09T06:32:10;16.40;99.90
59703;DHT22;45570;48.782;8.332;2022-09-09T06:34:39;16.50;99.90
59703;DHT22;45570;48.782;8.332;2022-09-09T06:37:08;16.60;99.90
59703;DHT22;45570;48.782;8.332;2022-09-09T06:39:47;16.70;99.90
59703;DHT22;45570;48.782;8.332;2022-09-09T06:42:16;16.80;99.90
59703;DHT22;45570;48.782;8.332;2022-09-09T06:44:50;16.90;99.90
59703;DHT22;45570;48.782;8.332;2022-09-09T06:47:42;16.90;99.90
59703;DHT22;45570;48.782;8.332;2022-09-09T06:50:11;16.90;99.90
59703;DHT22;45570;48.782;8.332;2022-09-09T06:52:42;17.00;99.90
59703;DHT22;45570;48.782;8.332;2022-09-09T06:55:12;17.00;99.90
59703;DHT22;45570;48.782;8.332;2022-09-09T06:57:43;17.00;99.90
59703;DHT22;45570;48.782;8.332;2022-09-09T07:00:16;17.10;99.90
59703;DHT22;45570;48.782;8.332;2022-09-09T07:02:45;17.20;99.90
59703;DHT22;45570;48.782;8.332;2022-09-09T07:05:14;17.20;99.90
59703;DHT22;45570;48.782;8.332;2022-09-09T07:07:45;17.20;99.90
59703;DHT22;45570;48.782;8.332;2022-09-09T07:10:19;17.20;99.90
59703;DHT22;45570;48.782;8.332;2022-09-09T07:12:50;17.30;99.90
59703;DHT22;45570;48.782;8.332;2022-09-09T07:15:22;17.30;99.90
59703;DHT22;45570;48.782;8.332;2022-09-09T07:17:51;17.40;99.90
59703;DHT22;45570;48.782;8.332;2022-09-09T07:20:21;17.60;99.90
59703;DHT22;45570;48.782;8.332;2022-09-09T07:22:51;17.80;99.90
59703;DHT22;45570;48.782;8.332;2022-09-09T07:25:24;17.80;99.90
59703;DHT22;45570;48.782;8.332;2022-09-09T07:27:53;17.90;99.90
59703;DHT22;45570;48.782;8.332;2022-09-09T07:30:22;18.40;99.90
59703;DHT22;45570;48.782;8.332;2022-09-09T07:32:55;18.80;99.90
59703;DHT22;45570;48.782;8.332;2022-09-09T07:35:25;19.00;99.90
59703;DHT22;45570;48.782;8.332;2022-09-09T07:37:54;19.30;99.90
59703;DHT22;45570;48.782;8.332;2022-09-09T07:40:24;19.30;99.90
59703;DHT22;45570;48.782;8.332;2022-09-09T07:42:53;19.40;99.90
59703;DHT22;45570;48.782;8.332;2022-09-09T07:45:22;19.60;99.90
59703;DHT22;45570;48.782;8.332;2022-09-09T07:47:51;19.70;99.90
59703;DHT22;45570;48.782;8.332;2022-09-09T07:50:20;20.00;99.90
59703;DHT22;45570;48.782;8.332;2022-09-09T07:52:50;20.40;99.90
59703;DHT22;45570;48.782;8.332;2022-09-09T07:55:19;20.90;99.90
59703;DHT22;45570;48.782;8.332;2022-09-09T07:57:50;21.10;99.90
59703;DHT22;45570;48.782;8.332;2022-09-09T08:00:19;21.30;99.90
59703;DHT22;45570;48.782;8.332;2022-09-09T08:02:53;21.10;99.90
59703;DHT22;45570;48.782;8.332;2022-09-09T08:05:22;20.70;99.90
59703;DHT22;45570;48.782;8.332;2022-09-09T08:07:51;20.60;99.90
59703;DHT22;45570;48.782;8.332;2022-09-09T08:10:20;21.00;99.90
59703;DHT22;45570;48.782;8.332;2022-09-09T08:12:51;21.50;99.90
59703;DHT22;45570;48.782;8.332;2022-09-09T08:15:41;21.50;99.90
59703;DHT22;45570;48.782;8.332;2022-09-09T08:18:11;21.30;99.90
59703;DHT22;45570;48.782;8.332;2022-09-09T08:20:39;21.10;99.90
59703;DHT22;45570;48.782;8.332;2022-09-09T08:23:09;21.10;99.90
59703;DHT22;45570;48.782;8.332;2022-09-09T08:25:37;21.20;99.90
59703;DHT22;45570;48.782;8.332;2022-09-09T08:28:08;21.30;99.90
59703;DHT22;45570;48.782;8.332;2022-09-09T08:30:38;21.20;99.90
59703;DHT22;45570;48.782;8.332;2022-09-09T08:33:06;21.20;99.90
59703;DHT22;45570;48.782;8.332;2022-09-09T08:35:37;21.10;99.90
59703;DHT22;45570;48.782;8.332;2022-09-09T08:38:06;20.80;99.90
59703;DHT22;45570;48.782;8.332;2022-09-09T08:40:42;20.70;99.90
59703;DHT22;45570;48.782;8.332;2022-09-09T08:43:15;20.60;99.90
59703;DHT22;45570;48.782;8.332;2022-09-09T08:45:53;20.50;99.90
59703;DHT22;45570;48.782;8.332;2022-09-09T08:48:39;20.50;99.90
59703;DHT22;45570;48.782;8.332;2022-09-09T08:51:10;20.60;99.90
59703;DHT22;45570;48.782;8.332;2022-09-09T08:53:43;20.60;99.90
59703;DHT22;45570;48.782;8.332;2022-09-09T08:56:18;20.50;99.90
59703;DHT22;45570;48.782;8.332;2022-09-09T08:58:56;20.50;99.90
59703;DHT22;45570;48.782;8.332;2022-09-09T09:01:51;20.60;99.90
59703;DHT22;45570;48.782;8.332;2022-09-09T09:04:57;21.00;99.90
59703;DHT22;45570;48.782;8.332;2022-09-09T09:07:47;21.60;99.90
59703;DHT22;45570;48.782;8.332;2022-09-09T09:10:33;21.30;99.90
59703;DHT22;45570;48.782;8.332;2022-09-09T09:13:14;21.10;99.90
59703;DHT22;45570;48.782;8.332;2022-09-09T09:15:50;20.80;99.90
59703;DHT22;45570;48.782;8.332;2022-09-09T09:18:20;20.60;99.90
59703;DHT22;45570;48.782;8.332;2022-09-09T09:20:55;20.20;99.90
59703;DHT22;45570;48.782;8.332;2022-09-09T09:23:35;20.10;99.90
59703;DHT22;45570;48.782;8.332;2022-09-09T09:26:09;19.80;99.90
59703;DHT22;45570;48.782;8.332;2022-09-09T09:28:40;19.70;99.90
59703;DHT22;45570;48.782;8.332;2022-09-09T09:31:18;19.40;99.90
59703;DHT22;45570;48.782;8.332;2022-09-09T09:33:51;19.20;99.90
59703;DHT22;45570;48.782;8.332;2022-09-09T09:36:32;19.40;99.90
59703;DHT22;45570;48.782;8.332;2022-09-09T09:39:04;20.10;99.90
59703;DHT22;45570;48.782;8.332;2022-09-09T09:41:56;20.80;99.90
59703;DHT22;45570;48.782;8.332;2022-09-09T09:44:27;20.80;99.90
59703;DHT22;45570;48.782;8.332;2022-09-09T09:47:12;20.80;99.90
59703;DHT22;45570;48.782;8.332;2022-09-09T09:49:52;20.80;99.90
59703;DHT22;45570;48.782;8.332;2022-09-09T09:52:22;20.70;99.90
59703;DHT22;45570;48.782;8.332;2022-09-09T09:54:53;20.70;99.90
59703;DHT22;45570;48.782;8.332;2022-09-09T09:57:25;20.50;99.90
59703;DHT22;45570;48.782;8.332;2022-09-09T10:00:03;20.20;99.90
59703;DHT22;45570;48.782;8.332;2022-09-09T10:02:43;20.00;99.90
59703;DHT22;45570;48.782;8.332;2022-09-09T10:05:22;20.00;99.90
59703;DHT22;45570;48.782;8.332;2022-09-09T10:08:03;19.90;99.90
59703;DHT22;45570;48.782;8.332;2022-09-09T10:10:43;19.90;99.90
59703;DHT22;45570;48.782;8.332;2022-09-09T10:13:20;19.80;99.90
59703;DHT22;45570;48.782;8.332;2022-09-09T10:16:02;19.70;99.90
59703;DHT22;45570;48.782;8.332;2022-09-09T10:18:47;19.50;99.90
59703;DHT22;45570;48.782;8.332;2022-09-09T10:21:32;19.20;99.90
59703;DHT22;45570;48.782;8.332;2022-09-09T10:24:33;19.00;99.90
59703;DHT22;45570;48.782;8.332;2022-09-09T10:27:10;19.00;99.90
59703;DHT22;45570;48.782;8.332;2022-09-09T10:29:55;19.30;99.90
59703;DHT22;45570;48.782;8.332;2022-09-09T10:32:36;19.70;99.90
59703;DHT22;45570;48.782;8.332;2022-09-09T10:35:13;19.70;99.90
59703;DHT22;45570;48.782;8.332;2022-09-09T10:38:10;19.50;99.90
59703;DHT22;45570;48.782;8.332;2022-09-09T10:40:59;19.40;99.90
59703;DHT22;45570;48.782;8.332;2022-09-09T10:43:46;19.20;99.90
59703;DHT22;45570;48.782;8.332;2022-09-09T10:46:34;19.10;99.90
59703;DHT22;45570;48.782;8.332;2022-09-09T10:49:16;18.90;99.90
59703;DHT22;45570;48.782;8.332;2022-09-09T10:51:56;19.00;99.90
59703;DHT22;45570;48.782;8.332;2022-09-09T10:54:38;18.90;99.90
59703;DHT22;45570;48.782;8.332;2022-09-09T10:57:13;19.00;99.90
59703;DHT22;45570;48.782;8.332;2022-09-09T10:59:48;18.90;99.90
59703;DHT22;45570;48.782;8.332;2022-09-09T11:02:22;18.70;99.90
59703;DHT22;45570;48.782;8.332;2022-09-09T11:04:57;18.70;99.90
59703;DHT22;45570;48.782;8.332;2022-09-09T11:07:35;18.90;99.90
59703;DHT22;45570;48.782;8.332;2022-09-09T11:10:17;19.20;99.90
59703;DHT22;45570;48.782;8.332;2022-09-09T11:12:53;19.70;99.90
59703;DHT22;45570;48.782;8.332;2022-09-09T11:15:30;20.20;99.90
59703;DHT22;45570;48.782;8.332;2022-09-09T11:18:03;20.70;99.90
59703;DHT22;45570;48.782;8.332;2022-09-09T11:20:33;21.30;99.90
59703;DHT22;45570;48.782;8.332;2022-09-09T11:23:08;21.90;99.90
59703;DHT22;45570;48.782;8.332;2022-09-09T11:25:41;22.00;99.90
59703;DHT22;45570;48.782;8.332;2022-09-09T11:28:29;22.20;99.90
59703;DHT22;45570;48.782;8.332;2022-09-09T11:31:11;22.60;99.90
59703;DHT22;45570;48.782;8.332;2022-09-09T11:34:07;22.30;99.90
59703;DHT22;45570;48.782;8.332;2022-09-09T11:37:00;22.20;99.90
59703;DHT22;45570;48.782;8.332;2022-09-09T11:42:38;21.50;99.90
59703;DHT22;45570;48.782;8.332;2022-09-09T11:45:19;21.60;99.90
59703;DHT22;45570;48.782;8.332;2022-09-09T11:47:53;21.30;99.90
59703;DHT22;45570;48.782;8.332;2022-09-09T11:50:29;21.30;99.90
59703;DHT22;45570;48.782;8.332;2022-09-09T11:53:18;21.80;99.90
59703;DHT22;45570;48.782;8.332;2022-09-09T11:56:10;22.40;99.90
59703;DHT22;45570;48.782;8.332;2022-09-09T11:58:44;22.90;99.90
59703;DHT22;45570;48.782;8.332;2022-09-09T12:01:28;23.40;99.90
59703;DHT22;45570;48.782;8.332;2022-09-09T12:04:17;23.80;99.90
59703;DHT22;45570;48.782;8.332;2022-09-09T12:06:51;24.10;99.90
59703;DHT22;45570;48.782;8.332;2022-09-09T12:09:40;24.30;99.90
59703;DHT22;45570;48.782;8.332;2022-09-09T12:12:27;24.30;99.90
59703;DHT22;45570;48.782;8.332;2022-09-09T12:17:49;24.80;99.90
59703;DHT22;45570;48.782;8.332;2022-09-09T12:20:20;24.50;99.90
59703;DHT22;45570;48.782;8.332;2022-09-09T12:23:01;24.30;99.90
59703;DHT22;45570;48.782;8.332;2022-09-09T12:25:40;24.60;99.90
59703;DHT22;45570;48.782;8.332;2022-09-09T12:28:17;24.70;99.90
59703;DHT22;45570;48.782;8.332;2022-09-09T12:30:52;24.40;99.90
59703;DHT22;45570;48.782;8.332;2022-09-09T12:33:23;23.70;99.90
59703;DHT22;45570;48.782;8.332;2022-09-09T12:35:55;22.90;99.90
59703;DHT22;45570;48.782;8.332;2022-09-09T12:38:32;22.40;99.90
59703;DHT22;45570;48.782;8.332;2022-09-09T12:41:01;22.30;99.90
59703;DHT22;45570;48.782;8.332;2022-09-09T12:43:30;22.20;99.90
59703;DHT22;45570;48.782;8.332;2022-09-09T12:46:02;22.70;99.90
59703;DHT22;45570;48.782;8.332;2022-09-09T12:48:34;22.90;99.90
59703;DHT22;45570;48.782;8.332;2022-09-09T12:51:17;23.10;99.90
59703;DHT22;45570;48.782;8.332;2022-09-09T12:53:46;23.60;99.90
59703;DHT22;45570;48.782;8.332;2022-09-09T12:56:21;23.80;99.90
59703;DHT22;45570;48.782;8.332;2022-09-09T12:58:51;23.60;99.90
59703;DHT22;45570;48.782;8.332;2022-09-09T13:01:24;23.00;99.90
59703;DHT22;45570;48.782;8.332;2022-09-09T13:03:53;22.70;99.90
59703;DHT22;45570;48.782;8.332;2022-09-09T13:06:24;23.00;99.90
59703;DHT22;45570;48.782;8.332;2022-09-09T13:08:57;23.60;99.90
59703;DHT22;45570;48.782;8.332;2022-09-09T13:11:29;24.00;99.90
59703;DHT22;45570;48.782;8.332;2022-09-09T13:13:59;23.70;99.90
59703;DHT22;45570;48.782;8.332;2022-09-09T13:16:31;23.50;99.90
59703;DHT22;45570;48.782;8.332;2022-09-09T13:19:08;23.00;99.90
59703;DHT22;45570;48.782;8.332;2022-09-09T13:21:38;22.70;99.90
59703;DHT22;45570;48.782;8.332;2022-09-09T13:24:26;22.30;99.90
59703;DHT22;45570;48.782;8.332;2022-09-09T13:26:57;22.10;99.90
59703;DHT22;45570;48.782;8.332;2022-09-09T13:29:25;21.90;99.90
59703;DHT22;45570;48.782;8.332;2022-09-09T13:32:03;21.60;99.90
59703;DHT22;45570;48.782;8.332;2022-09-09T13:34:34;21.30;99.90
59703;DHT22;45570;48.782;8.332;2022-09-09T13:37:05;20.70;99.90
59703;DHT22;45570;48.782;8.332;2022-09-09T13:39:35;20.30;99.90
59703;DHT22;45570;48.782;8.332;2022-09-09T13:42:05;19.70;99.90
59703;DHT22;45570;48.782;8.332;2022-09-09T13:44:36;19.40;99.90
59703;DHT22;45570;48.782;8.332;2022-09-09T13:47:19;19.40;99.90
59703;DHT22;45570;48.782;8.332;2022-09-09T13:49:47;19.30;99.90
59703;DHT22;45570;48.782;8.332;2022-09-09T13:52:18;19.40;99.90
59703;DHT22;45570;48.782;8.332;2022-09-09T13:54:48;19.40;99.90
59703;DHT22;45570;48.782;8.332;2022-09-09T13:57:20;19.60;99.90
59703;DHT22;45570;48.782;8.332;2022-09-09T13:59:51;19.70;99.90
59703;DHT22;45570;48.782;8.332;2022-09-09T14:02:38;20.10;99.90
59703;DHT22;45570;48.782;8.332;2022-09-09T14:05:07;20.50;99.90
59703;DHT22;45570;48.782;8.332;2022-09-09T14:07:36;20.80;99.90
59703;DHT22;45570;48.782;8.332;2022-09-09T14:10:06;21.00;99.90
59703;DHT22;45570;48.782;8.332;2022-09-09T14:12:35;21.30;99.90
59703;DHT22;45570;48.782;8.332;2022-09-09T14:15:06;21.40;99.90
59703;DHT22;45570;48.782;8.332;2022-09-09T14:17:35;21.60;99.90
59703;DHT22;45570;48.782;8.332;2022-09-09T14:20:07;21.70;99.90
59703;DHT22;45570;48.782;8.332;2022-09-09T14:22:37;21.70;99.90
59703;DHT22;45570;48.782;8.332;2022-09-09T14:25:07;21.70;99.90
59703;DHT22;45570;48.782;8.332;2022-09-09T14:27:36;21.70;99.90
59703;DHT22;45570;48.782;8.332;2022-09-09T14:30:07;21.70;99.90
59703;DHT22;45570;48.782;8.332;2022-09-09T14:32:36;21.60;99.90
59703;DHT22;45570;48.782;8.332;2022-09-09T14:35:07;21.20;99.90
59703;DHT22;45570;48.782;8.332;2022-09-09T14:37:35;20.80;99.90
59703;DHT22;45570;48.782;8.332;2022-09-09T14:40:06;20.60;99.90
59703;DHT22;45570;48.782;8.332;2022-09-09T14:42:35;20.30;99.90
59703;DHT22;45570;48.782;8.332;2022-09-09T14:45:05;20.30;99.90
59703;DHT22;45570;48.782;8.332;2022-09-09T14:47:34;20.40;99.90
59703;DHT22;45570;48.782;8.332;2022-09-09T14:50:05;20.40;99.90
59703;DHT22;45570;48.782;8.332;2022-09-09T14:52:35;20.40;99.90
59703;DHT22;45570;48.782;8.332;2022-09-09T14:55:04;20.30;99.90
59703;DHT22;45570;48.782;8.332;2022-09-09T14:57:33;20.20;99.90
59703;DHT22;45570;48.782;8.332;2022-09-09T15:00:04;20.10;99.90
59703;DHT22;45570;48.782;8.332;2022-09-09T15:02:33;19.90;99.90
59703;DHT22;45570;48.782;8.332;2022-09-09T15:05:02;19.80;99.90
59703;DHT22;45570;48.782;8.332;2022-09-09T15:07:32;19.60;99.90
59703;DHT22;45570;48.782;8.332;2022-09-09T15:10:02;19.20;99.90
59703;DHT22;45570;48.782;8.332;2022-09-09T15:12:31;18.60;99.90
59703;DHT22;45570;48.782;8.332;2022-09-09T15:15:00;18.10;99.90
59703;DHT22;45570;48.782;8.332;2022-09-09T15:17:29;17.70;99.90
59703;DHT22;45570;48.782;8.332;2022-09-09T15:19:57;17.30;99.90
59703;DHT22;45570;48.782;8.332;2022-09-09T15:22:26;16.90;99.90
59703;DHT22;45570;48.782;8.332;2022-09-09T15:24:56;16.70;99.90
59703;DHT22;45570;48.782;8.332;2022-09-09T15:27:24;16.50;99.90
59703;DHT22;45570;48.782;8.332;2022-09-09T15:30:04;16.40;99.90
59703;DHT22;45570;48.782;8.332;2022-09-09T15:32:39;16.30;99.90
59703;DHT22;45570;48.782;8.332;2022-09-09T15:35:08;16.30;99.90
59703;DHT22;45570;48.782;8.332;2022-09-09T15:37:37;16.30;99.90
59703;DHT22;45570;48.782;8.332;2022-09-09T15:40:08;16.40;99.90
59703;DHT22;45570;48.782;8.332;2022-09-09T15:42:37;16.50;99.90
59703;DHT22;45570;48.782;8.332;2022-09-09T15:45:06;16.60;99.90
59703;DHT22;45570;48.782;8.332;2022-09-09T15:47:36;16.80;99.90
59703;DHT22;45570;48.782;8.332;2022-09-09T15:50:05;16.90;99.90
59703;DHT22;45570;48.782;8.332;2022-09-09T15:52:33;17.00;99.90
59703;DHT22;45570;48.782;8.332;2022-09-09T15:55:02;17.00;99.90
59703;DHT22;45570;48.782;8.332;2022-09-09T15:57:38;17.00;99.90
59703;DHT22;45570;48.782;8.332;2022-09-09T16:00:13;17.00;99.90
59703;DHT22;45570;48.782;8.332;2022-09-09T16:02:43;16.90;99.90
59703;DHT22;45570;48.782;8.332;2022-09-09T16:05:12;16.80;99.90
59703;DHT22;45570;48.782;8.332;2022-09-09T16:07:41;16.80;99.90
59703;DHT22;45570;48.782;8.332;2022-09-09T16:10:10;16.70;99.90
59703;DHT22;45570;48.782;8.332;2022-09-09T16:12:42;16.50;99.90
59703;DHT22;45570;48.782;8.332;2022-09-09T16:15:11;16.50;99.90
59703;DHT22;45570;48.782;8.332;2022-09-09T16:17:40;16.50;99.90
59703;DHT22;45570;48.782;8.332;2022-09-09T16:20:09;16.30;99.90
59703;DHT22;45570;48.782;8.332;2022-09-09T16:22:39;16.20;99.90
59703;DHT22;45570;48.782;8.332;2022-09-09T16:25:09;16.10;99.90
59703;DHT22;45570;48.782;8.332;2022-09-09T16:27:38;16.10;99.90
59703;DHT22;45570;48.782;8.332;2022-09-09T16:30:10;16.10;99.90
59703;DHT22;45570;48.782;8.332;2022-09-09T16:32:39;16.10;99.90
59703;DHT22;45570;48.782;8.332;2022-09-09T16:35:08;16.00;99.90
59703;DHT22;45570;48.782;8.332;2022-09-09T16:37:37;16.00;99.90
59703;DHT22;45570;48.782;8.332;2022-09-09T16:40:07;16.00;99.90
59703;DHT22;45570;48.782;8.332;2022-09-09T16:42:36;16.00;99.90
59703;DHT22;45570;48.782;8.332;2022-09-09T16:45:06;16.00;99.90
59703;DHT22;45570;48.782;8.332;2022-09-09T16:47:37;15.90;99.90
59703;DHT22;45570;48.782;8.332;2022-09-09T16:50:06;15.90;99.90
59703;DHT22;45570;48.782;8.332;2022-09-09T16:52:35;16.00;99.90
59703;DHT22;45570;48.782;8.332;2022-09-09T16:55:05;16.00;99.90
59703;DHT22;45570;48.782;8.332;2022-09-09T16:57:34;15.90;99.90
59703;DHT22;45570;48.782;8.332;2022-09-09T17:00:04;15.90;99.90
59703;DHT22;45570;48.782;8.332;2022-09-09T17:02:35;15.90;99.90
59703;DHT22;45570;48.782;8.332;2022-09-09T17:05:05;16.00;99.90
59703;DHT22;45570;48.782;8.332;2022-09-09T17:07:33;16.10;99.90
59703;DHT22;45570;48.782;8.332;2022-09-09T17:10:03;16.10;99.90
59703;DHT22;45570;48.782;8.332;2022-09-09T17:12:32;16.20;99.90
59703;DHT22;45570;48.782;8.332;2022-09-09T17:15:08;16.30;99.90
59703;DHT22;45570;48.782;8.332;2022-09-09T17:17:38;16.30;99.90
59703;DHT22;45570;48.782;8.332;2022-09-09T17:20:10;16.30;99.90
59703;DHT22;45570;48.782;8.332;2022-09-09T17:22:39;16.30;99.90
59703;DHT22;45570;48.782;8.332;2022-09-09T17:25:08;16.30;99.90
59703;DHT22;45570;48.782;8.332;2022-09-09T17:27:37;16.30;99.90
59703;DHT22;45570;48.782;8.332;2022-09-09T17:30:07;16.20;99.90
59703;DHT22;45570;48.782;8.332;2022-09-09T17:32:37;16.20;99.90
59703;DHT22;45570;48.782;8.332;2022-09-09T17:35:07;16.10;99.90
59703;DHT22;45570;48.782;8.332;2022-09-09T17:37:36;16.00;99.90
59703;DHT22;45570;48.782;8.332;2022-09-09T17:40:05;16.00;99.90
59703;DHT22;45570;48.782;8.332;2022-09-09T17:42:37;15.90;99.90
59703;DHT22;45570;48.782;8.332;2022-09-09T17:45:06;15.90;99.90
59703;DHT22;45570;48.782;8.332;2022-09-09T17:47:35;15.80;99.90
59703;DHT22;45570;48.782;8.332;2022-09-09T17:50:06;15.70;99.90
59703;DHT22;45570;48.782;8.332;2022-09-09T17:52:35;15.70;99.90
59703;DHT22;45570;48.782;8.332;2022-09-09T17:55:06;15.60;99.90
59703;DHT22;45570;48.782;8.332;2022-09-09T17:57:36;15.50;99.90
59703;DHT22;45570;48.782;8.332;2022-09-09T18:00:06;15.50;99.90
59703;DHT22;45570;48.782;8.332;2022-09-09T18:02:38;15.50;99.90
59703;DHT22;45570;48.782;8.332;2022-09-09T18:05:09;15.40;99.90
59703;DHT22;45570;48.782;8.332;2022-09-09T18:07:37;15.50;99.90
59703;DHT22;45570;48.782;8.332;2022-09-09T18:10:07;15.60;99.90
59703;DHT22;45570;48.782;8.332;2022-09-09T18:12:36;15.50;99.90
59703;DHT22;45570;48.782;8.332;2022-09-09T18:15:05;15.60;99.90
59703;DHT22;45570;48.782;8.332;2022-09-09T18:17:34;15.50;99.90
59703;DHT22;45570;48.782;8.332;2022-09-09T18:20:10;15.50;99.90
59703;DHT22;45570;48.782;8.332;2022-09-09T18:22:38;15.50;99.90
59703;DHT22;45570;48.782;8.332;2022-09-09T18:25:07;15.50;99.90
59703;DHT22;45570;48.782;8.332;2022-09-09T18:27:36;15.40;99.90
59703;DHT22;45570;48.782;8.332;2022-09-09T18:30:06;15.30;99.90
59703;DHT22;45570;48.782;8.332;2022-09-09T18:32:36;15.30;99.90
59703;DHT22;45570;48.782;8.332;2022-09-09T18:35:05;15.20;99.90
59703;DHT22;45570;48.782;8.332;2022-09-09T18:37:36;15.20;99.90
59703;DHT22;45570;48.782;8.332;2022-09-09T18:40:06;15.10;99.90
59703;DHT22;45570;48.782;8.332;2022-09-09T18:42:35;15.00;99.90
59703;DHT22;45570;48.782;8.332;2022-09-09T18:45:04;15.10;99.90
59703;DHT22;45570;48.782;8.332;2022-09-09T18:47:33;15.00;99.90
59703;DHT22;45570;48.782;8.332;2022-09-09T18:50:04;15.00;99.90
59703;DHT22;45570;48.782;8.332;2022-09-09T18:52:33;14.90;99.90
59703;DHT22;45570;48.782;8.332;2022-09-09T18:55:04;14.90;99.90
59703;DHT22;45570;48.782;8.332;2022-09-09T18:57:33;15.00;99.90
59703;DHT22;45570;48.782;8.332;2022-09-09T19:00:03;15.10;99.90
59703;DHT22;45570;48.782;8.332;2022-09-09T19:02:33;15.00;99.90
59703;DHT22;45570;48.782;8.332;2022-09-09T19:05:01;15.00;99.90
59703;DHT22;45570;48.782;8.332;2022-09-09T19:07:30;14.90;99.90
59703;DHT22;45570;48.782;8.332;2022-09-09T19:09:59;14.90;99.90
59703;DHT22;45570;48.782;8.332;2022-09-09T19:12:30;14.90;99.90
59703;DHT22;45570;48.782;8.332;2022-09-09T19:14:59;14.80;99.90
59703;DHT22;45570;48.782;8.332;2022-09-09T19:17:28;14.80;99.90
59703;DHT22;45570;48.782;8.332;2022-09-09T19:19:58;14.80;99.90
59703;DHT22;45570;48.782;8.332;2022-09-09T19:22:26;14.80;99.90
59703;DHT22;45570;48.782;8.332;2022-09-09T19:24:55;14.70;99.90
59703;DHT22;45570;48.782;8.332;2022-09-09T19:27:25;14.80;99.90
59703;DHT22;45570;48.782;8.332;2022-09-09T19:29:55;14.80;99.90
59703;DHT22;45570;48.782;8.332;2022-09-09T19:32:24;14.70;99.90
59703;DHT22;45570;48.782;8.332;2022-09-09T19:35:13;14.70;99.90
59703;DHT22;45570;48.782;8.332;2022-09-09T19:37:42;14.70;99.90
59703;DHT22;45570;48.782;8.332;2022-09-09T19:40:12;14.70;99.90
59703;DHT22;45570;48.782;8.332;2022-09-09T19:42:41;14.60;99.90
59703;DHT22;45570;48.782;8.332;2022-09-09T19:45:11;14.60;99.90
59703;DHT22;45570;48.782;8.332;2022-09-09T19:47:40;14.50;99.90
59703;DHT22;45570;48.782;8.332;2022-09-09T19:50:10;14.50;99.90
59703;DHT22;45570;48.782;8.332;2022-09-09T19:52:39;14.50;99.90
59703;DHT22;45570;48.782;8.332;2022-09-09T19:55:08;14.50;99.90
59703;DHT22;45570;48.782;8.332;2022-09-09T19:57:37;14.50;99.90
59703;DHT22;45570;48.782;8.332;2022-09-09T20:00:07;14.50;99.90
59703;DHT22;45570;48.782;8.332;2022-09-09T20:02:41;14.50;99.90
59703;DHT22;45570;48.782;8.332;2022-09-09T20:05:30;14.40;99.90
59703;DHT22;45570;48.782;8.332;2022-09-09T20:09:35;14.30;99.90
59703;DHT22;45570;48.782;8.332;2022-09-09T20:12:05;14.20;99.90
59703;DHT22;45570;48.782;8.332;2022-09-09T20:14:34;14.20;99.90
59703;DHT22;45570;48.782;8.332;2022-09-09T20:17:06;14.10;99.90
59703;DHT22;45570;48.782;8.332;2022-09-09T20:19:35;14.20;99.90
59703;DHT22;45570;48.782;8.332;2022-09-09T20:22:04;14.30;99.90
59703;DHT22;45570;48.782;8.332;2022-09-09T20:24:33;14.20;99.90
59703;DHT22;45570;48.782;8.332;2022-09-09T20:27:05;14.10;99.90
59703;DHT22;45570;48.782;8.332;2022-09-09T20:29:35;14.00;99.90
59703;DHT22;45570;48.782;8.332;2022-09-09T20:32:05;14.00;99.90
59703;DHT22;45570;48.782;8.332;2022-09-09T20:34:33;13.90;99.90
59703;DHT22;45570;48.782;8.332;2022-09-09T20:37:03;13.90;99.90
59703;DHT22;45570;48.782;8.332;2022-09-09T20:39:32;13.80;99.90
